Nearby METAR Reports

 

KCRE - North Myrtle Bea, South Carolina, USA
Distance from station: SW 11mi, 18km
Updated: 07/17/2018 10:53am
Partly cloudy
Partly cloudy
 Wind from calm
Wind: Calm
Temperature: 77°F , 25°C
Dew Point: 75°F , 24°C
Humidity: 94%
Barometer: 30.01 inHg , 1016.3 hPa
Clouds: Partly cloudy
Visibility: 10 miles , 16 km
Cloud details: Few Clouds 5500 ft
Partly cloudy 11000 ft
2018/07/17 14:53 KCRE 171453Z 00000KT 10SM FEW055 SCT110 25/24 A3001 RMK AO1 LTG DSNT ALQDS RAE50 TSE18 SLP164 P0002 60026 T02500239 58002
KCPC - Whiteville, North Carolina, USA
Distance from station: NNW 26mi, 42km
Updated: 07/17/2018 11:10am
Light rain, Mostly cloudy
Light rain, Mostly cloudy
 Wind from S
Wind: S 6 mph , 9 km/h
Temperature: 81°F , 27°C
Heat Index: 88°F , 31°C
Dew Point: 77°F , 25°C
Humidity: 89%
Barometer: 30.00 inHg , 1015.9 hPa
Summary: Light rain
Clouds: Mostly cloudy
Visibility: 4 miles , 6 km
Cloud details: Partly cloudy 1900 ft
Mostly cloudy 2700 ft
Mostly cloudy 3600 ft
2018/07/17 15:10 KCPC 171510Z AUTO 18005KT 4SM -RA SCT019 BKN027 BKN036 27/25 A3000 RMK AO2 T02660245
 
KMYR - Myrtle Beach, South Carolina, USA
Distance from station: SW 27mi, 43km
Updated: 07/17/2018 10:56am
Mostly cloudy
Mostly cloudy
 Wind from W
Wind: W 7 mph , 11 km/h
Temperature: 82°F , 28°C
Heat Index: 89°F , 32°C
Dew Point: 75°F , 24°C
Humidity: 79%
Barometer: 30.02 inHg , 1016.6 hPa
Clouds: Mostly cloudy
Visibility: 10 miles , 16 km
Cloud details: Mostly cloudy 1900 ft
Mostly cloudy 7500 ft
Mostly cloudy 11000 ft
2018/07/17 14:56 KMYR 171456Z 26006KT 10SM BKN019 BKN075 BKN110 28/24 A3002 RMK AO2 LTG DSNT NE AND SE SLPNO 6//// T02830239
KSUT - Southport, North Carolina, USA
Distance from station: E 28mi, 45km
Updated: 07/17/2018 11:20am
Light rain, Overcast
Light rain, Overcast
 Wind from SW
Wind: SW 8 mph , 13 km/h
Temperature: 77°F , 25°C
Dew Point: 75°F , 24°C
Humidity: 94%
Barometer: 30.04 inHg , 1017.3 hPa
Summary: Light rain
Clouds: Overcast
Visibility: 2 1/2 miles , 4 km
Cloud details: Overcast 1200 ft
2018/07/17 15:20 KSUT 171520Z AUTO 23007KT 2 1/2SM -RA OVC012 25/24 A3004 RMK AO2 P0006 T02450240
 
KHYW - Conway-Horry Cty, South Carolina, USA
Distance from station: WSW 32mi, 52km
Updated: 07/17/2018 11:15am
Nearby thunderstorm, Mist, Mostly cloudy
Nearby thunderstorm, Mist, Mostly cloudy
 Wind from WSW
Wind: WSW 6 mph , 9 km/h
Temperature: 79°F , 26°C
Dew Point: 79°F , 26°C
Humidity: 100%
Barometer: 30.01 inHg , 1016.3 hPa
Summary: Nearby thunderstorm, Mist
Clouds: Mostly cloudy
Visibility: 5 miles , 8 km
Cloud details: Mostly cloudy 900 ft
Mostly cloudy 1200 ft
2018/07/17 15:15 KHYW 171515Z AUTO 24005KT 5SM VCTS BR BKN009 BKN012 26/26 A3001 RMK AO2 LTG DSNT E AND SE
KILM - Wilmington, North Carolina, USA
Distance from station: ENE 45mi, 72km
Updated: 07/17/2018 11:30am
Mostly cloudy
Mostly cloudy
 Wind from SSW
Wind: SSW 13 mph , 20 km/h, Gust: 21 mph , 33 km/h
Temperature: 81°F , 27°C
Heat Index: 85°F , 29°C
Dew Point: 72°F , 22°C
Humidity: 74%
Barometer: 30.01 inHg , 1016.3 hPa
Clouds: Mostly cloudy
Visibility: 10 miles , 16 km
Cloud details: Partly cloudy 1700 ft
Mostly cloudy 2700 ft
Mostly cloudy 3400 ft
2018/07/17 15:30 KILM 171530Z 20011G18KT 10SM SCT017 BKN027 BKN034 27/22 A3001 RMK AO2 T02720222
 
KEYF - Elizabethtown, North Carolina, USA
Distance from station: N 47mi, 75km
Updated: 07/17/2018 11:15am
Overcast
Overcast
 Wind from SSW
Wind: SSW 10 mph , 17 km/h
Temperature: 86°F , 30°C
Heat Index: 95°F , 35°C
Dew Point: 75°F , 24°C
Humidity: 70%
Barometer: 29.99 inHg , 1015.6 hPa
Clouds: Overcast
Visibility: 10 miles , 16 km
Cloud details: Partly cloudy 2300 ft
Mostly cloudy 2800 ft
Overcast 11000 ft
2018/07/17 15:15 KEYF 171515Z AUTO 21009KT 10SM SCT023 BKN028 OVC110 30/24 A2999 RMK AO2 LTG DSNT E AND S T03040235
KMAO - Marion, South Carolina, USA
Distance from station: WNW 47mi, 76km
Updated: 07/17/2018 11:15am
Haze, Mostly cloudy
Haze, Mostly cloudy
 Wind from WSW
Wind: WSW 6 mph , 9 km/h
Temperature: 84°F , 29°C
Heat Index: 90°F , 32°C
Dew Point: 73°F , 23°C
Humidity: 70%
Barometer: 29.99 inHg , 1015.6 hPa
Summary: Haze
Clouds: Mostly cloudy
Visibility: 5 miles , 8 km
Cloud details: Mostly cloudy 2000 ft
Mostly cloudy 5500 ft
Mostly cloudy 12000 ft
2018/07/17 15:15 KMAO 171515Z AUTO 24005KT 5SM HZ BKN020 BKN055 BKN120 29/23 A2999 RMK AO2
 
KLBT - Lumberton, North Carolina, USA
Distance from station: NNW 55mi, 88km
Updated: 07/17/2018 10:54am
Mostly cloudy
Mostly cloudy
 Wind from SW
Wind: SW 7 mph , 11 km/h
Temperature: 84°F , 29°C
Heat Index: 90°F , 32°C
Dew Point: 73°F , 23°C
Humidity: 70%
Barometer: 29.98 inHg , 1015.2 hPa
Clouds: Mostly cloudy
Visibility: 10 miles , 16 km
Cloud details: Partly cloudy 1900 ft
Partly cloudy 7500 ft
Mostly cloudy 10000 ft
2018/07/17 14:54 KLBT 171454Z AUTO 23006KT 10SM SCT019 SCT075 BKN100 29/23 A2998 RMK AO2 SLP151 T02940233 58004
KGGE - Georgetown, South Carolina, USA
Distance from station: SW 60mi, 97km
Updated: 07/17/2018 11:15am
Mostly cloudy
Mostly cloudy
 Wind from WSW
Wind: WSW 8 mph , 13 km/h
Temperature: 82°F , 28°C
Heat Index: 93°F , 34°C
Dew Point: 81°F , 27°C
Humidity: 94%
Barometer: 30.02 inHg , 1016.6 hPa
Clouds: Mostly cloudy
Visibility: 10 miles , 16 km
Cloud details: Mostly cloudy 1600 ft
Mostly cloudy 2400 ft
2018/07/17 15:15 KGGE 171515Z AUTO 25007KT 10SM BKN016 BKN024 28/27 A3002 RMK AO2 LTG DSNT E
 
KFLO - Florence, South Carolina, USA
Distance from station: WNW 69mi, 111km
Updated: 07/17/2018 10:53am
Few Clouds
Few Clouds
 Wind from WSW
Wind: WSW 9 mph , 15 km/h
Temperature: 84°F , 29°C
Heat Index: 90°F , 32°C
Dew Point: 73°F , 23°C
Humidity: 70%
Barometer: 30.00 inHg , 1015.9 hPa
Clouds: Few Clouds
Visibility: 10 miles , 16 km
Cloud details: Few Clouds 1700 ft
2018/07/17 14:53 KFLO 171453Z 25008KT 10SM FEW017 29/23 A3000 RMK AO2 SLP155 T02940233 58006
KCTZ - Clinton, North Carolina, USA
Distance from station: N 74mi, 119km
Updated: 07/17/2018 11:15am
Partly cloudy
Partly cloudy
 Wind from SSW
Wind: SSW 7 mph , 11 km/h
Temperature: 86°F , 30°C
Heat Index: 95°F , 35°C
Dew Point: 75°F , 24°C
Humidity: 70%
Barometer: 29.99 inHg , 1015.6 hPa
Clouds: Partly cloudy
Visibility: 10 miles , 16 km
Cloud details: Partly cloudy 2600 ft
Partly cloudy 3300 ft
2018/07/17 15:15 KCTZ 171515Z AUTO 21006KT 10SM SCT026 SCT033 30/24 A2999 RMK AO2 T03030235
 
KMEB - Maxton, North Carolina, USA
Distance from station: NW 75mi, 120km
Updated: 07/17/2018 11:28am
Mostly cloudy
Mostly cloudy
 Wind from SW
Wind: SW 8 mph , 13 km/h
Temperature: 86°F , 30°C
Heat Index: 93°F , 34°C
Dew Point: 73°F , 23°C
Humidity: 66%
Barometer: 29.99 inHg , 1015.6 hPa
Clouds: Mostly cloudy
Visibility: 10 miles , 16 km
Cloud details: Partly cloudy 2300 ft
Mostly cloudy 9000 ft
2018/07/17 15:28 KMEB 171528Z AUTO 23007KT 10SM SCT023 BKN090 30/23 A2999 RMK AO2 T03000228
KCKI - Kingstree, South Carolina, USA
Distance from station: W 75mi, 121km
Updated: 07/17/2018 11:15am
Mostly cloudy
Mostly cloudy
 Wind from WSW
Wind: WSW 6 mph , 9 km/h
Temperature: 84°F , 29°C
Heat Index: 96°F , 36°C
Dew Point: 79°F , 26°C
Humidity: 84%
Barometer: 30.00 inHg , 1015.9 hPa
Clouds: Mostly cloudy
Visibility: 10 miles , 16 km
Cloud details: Partly cloudy 1600 ft
Mostly cloudy 2100 ft
2018/07/17 15:15 KCKI 171515Z AUTO 24005KT 10SM SCT016 BKN021 29/26 A3000 RMK AO2 LTG DSNT E
 
KFAY - Fayetteville, North Carolina, USA
Distance from station: NNW 75mi, 121km
Updated: 07/17/2018 10:53am
Few Clouds
Few Clouds
 Wind from WSW
Wind: WSW 12 mph , 19 km/h
Temperature: 86°F , 30°C
Heat Index: 92°F , 33°C
Dew Point: 72°F , 22°C
Humidity: 62%
Barometer: 29.98 inHg , 1015.2 hPa
Clouds: Few Clouds
Visibility: 10 miles , 16 km
Cloud details: Few Clouds 2100 ft
2018/07/17 14:53 KFAY 171453Z 25010KT 10SM FEW021 30/22 A2998 RMK AO2 SLP146 T03000217 56005
KBBP - Marlboro Cnty, South Carolina, USA
Distance from station: NW 82mi, 132km
Updated: 07/17/2018 11:15am
Mostly cloudy
Mostly cloudy
 Wind from SSW
Wind: SSW 7 mph , 11 km/h
Temperature: 82°F , 28°C
Heat Index: 89°F , 32°C
Dew Point: 75°F , 24°C
Humidity: 79%
Barometer: 29.99 inHg , 1015.6 hPa
Clouds: Mostly cloudy
Visibility: 10 miles , 16 km
Cloud details: Mostly cloudy 1700 ft
2018/07/17 15:15 KBBP 171515Z AUTO 20006KT 10SM BKN017 28/24 A2999 RMK AO2
 
KDPL - Kenansville/Dupl, North Carolina, USA
Distance from station: NNE 82mi, 132km
Updated: 07/17/2018 11:15am
Overcast
Overcast
 Wind from SW
Wind: SW 6 mph , 9 km/h
Temperature: 84°F , 29°C
Heat Index: 90°F , 32°C
Dew Point: 73°F , 23°C
Humidity: 70%
Barometer: 29.99 inHg , 1015.6 hPa
Clouds: Overcast
Visibility: 10 miles , 16 km
Cloud details: Mostly cloudy 2500 ft
Overcast 3300 ft
2018/07/17 15:15 KDPL 171515Z AUTO 23005KT 10SM BKN025 OVC033 29/23 A2999 RMK AO2
KOAJ - Jacksonville, North Carolina, USA
Distance from station: NE 82mi, 132km
Updated: 07/17/2018 11:09am
Mostly cloudy
Mostly cloudy
 Wind from SSW
Wind: SSW 12 mph , 19 km/h, Gust: 17 mph , 28 km/h
Temperature: 88°F , 31°C
Heat Index: 98°F , 37°C
Dew Point: 75°F , 24°C
Humidity: 66%
Barometer: 30.00 inHg , 1015.9 hPa
Clouds: Mostly cloudy
Visibility: 10 miles , 16 km
Cloud details: Mostly cloudy 2400 ft
Mostly cloudy 3100 ft
2018/07/17 15:09 KOAJ 171509Z AUTO 21010G15KT 10SM BKN024 BKN031 31/24 A3000 RMK AO2
 
KUDG - Darlington Cnty, South Carolina, USA
Distance from station: WNW 83mi, 134km
Updated: 07/17/2018 11:16am
Mostly cloudy
Mostly cloudy
 Wind from SSW
Wind: SSW 9 mph , 15 km/h
Temperature: 82°F , 28°C
Heat Index: 87°F , 31°C
Dew Point: 73°F , 23°C
Humidity: 74%
Barometer: 30.00 inHg , 1015.9 hPa
Clouds: Mostly cloudy
Visibility: 10 miles , 16 km
Cloud details: Few Clouds 200 ft
Mostly cloudy 1600 ft
2018/07/17 15:16 KUDG 171516Z AUTO 21008KT 10SM FEW002 BKN016 28/23 A3000 RMK AO2
KNCA - New River Mcas, North Carolina, USA
Distance from station: NE 84mi, 135km
Updated: 07/17/2018 10:56am
Partly cloudy
Partly cloudy
 Wind from SW
Wind: SW 12 mph , 19 km/h
Temperature: 84°F , 29°C
Heat Index: 92°F , 33°C
Dew Point: 75°F , 24°C
Humidity: 74%
Barometer: 29.99 inHg , 1015.6 hPa
Clouds: Partly cloudy
Visibility: 10 miles , 16 km
Cloud details: Few Clouds 2300 ft
Partly cloudy 10000 ft
2018/07/17 14:56 KNCA 171456Z 23010KT 10SM FEW023 SCT100 29/24 A2999 RMK AO2 SLP157 T02940239 58002